Time;durP1;ratioP1;P1;durP2;ratioP2;P2;SDS_P1;SDS_P2;PMS_P1;PMS_P2;Temp;Humidity;BMP_temperature;BMP_pressure;BME280_temperature;BME280_humidity;BME280_pressure;Samples;Min_cycle;Max_cycle;Signal;HPM_P1;HPM_P2
2022/06/30 00:00:44;;;;;;;13.63;10.10;;;;;;;19.66;100.00;96255.69;5034316;28;20038;-72
2022/06/30 00:03:10;;;;;;;15.65;10.40;;;;;;;19.61;100.00;96253.13;5033736;28;20132;-72
2022/06/30 00:05:35;;;;;;;14.32;10.68;;;;;;;19.60;100.00;96258.84;5034367;28;20029;-72
2022/06/30 00:08:02;;;;;;;16.33;11.98;;;;;;;19.56;100.00;96253.22;5036746;28;20125;-72
2022/06/30 00:10:27;;;;;;;15.55;11.90;;;;;;;19.49;100.00;96253.66;5034652;28;20035;-72
2022/06/30 00:12:53;;;;;;;19.30;11.38;;;;;;;19.31;100.00;96248.44;5037488;28;20029;-72
2022/06/30 00:15:18;;;;;;;21.77;11.60;;;;;;;19.19;100.00;96249.78;5033054;28;20029;-72
2022/06/30 00:17:44;;;;;;;15.50;11.45;;;;;;;19.12;100.00;96246.69;5037122;28;20076;-72
2022/06/30 00:20:12;;;;;;;16.90;11.55;;;;;;;18.93;100.00;96246.88;5034945;28;20125;-72
2022/06/30 00:22:38;;;;;;;17.08;12.02;;;;;;;19.00;100.00;96238.31;5050865;28;20560;-73
2022/06/30 00:25:04;;;;;;;16.42;11.73;;;;;;;18.93;100.00;96240.66;5035428;28;20116;-73
2022/06/30 00:27:29;;;;;;;17.13;12.20;;;;;;;18.85;100.00;96238.69;5030919;28;20131;-72
2022/06/30 00:29:55;;;;;;;14.95;12.20;;;;;;;18.79;100.00;96237.19;5039227;28;20033;-72
2022/06/30 00:32:20;;;;;;;19.75;12.43;;;;;;;18.73;100.00;96232.97;5036929;28;20091;-73
2022/06/30 00:34:46;;;;;;;24.80;13.18;;;;;;;18.60;100.00;96240.84;5037614;28;20435;-72
2022/06/30 00:37:11;;;;;;;16.85;12.45;;;;;;;18.50;100.00;96241.03;5049690;28;20618;-72
2022/06/30 00:39:37;;;;;;;18.58;12.07;;;;;;;18.47;100.00;96241.66;5034547;28;20114;-72
2022/06/30 00:42:05;;;;;;;16.77;11.77;;;;;;;18.33;100.00;96238.97;5035821;28;20044;-72
2022/06/30 00:44:31;;;;;;;18.75;11.65;;;;;;;18.25;100.00;96238.88;5034570;28;20081;-72
2022/06/30 00:46:57;;;;;;;15.88;11.75;;;;;;;18.22;100.00;96234.06;5031890;28;20025;-72
2022/06/30 00:49:22;;;;;;;18.13;12.90;;;;;;;18.18;100.00;96233.84;5035195;28;20033;-72
2022/06/30 00:51:48;;;;;;;18.48;13.43;;;;;;;18.18;100.00;96236.56;5034920;28;20056;-73
2022/06/30 00:54:16;;;;;;;17.45;12.45;;;;;;;18.10;100.00;96229.94;5036421;28;20378;-73
2022/06/30 00:56:46;;;;;;;16.48;12.50;;;;;;;17.99;100.00;96242.09;5036865;28;20033;-72
2022/06/30 00:59:16;;;;;;;18.77;12.55;;;;;;;18.07;100.00;96233.28;5037059;28;20041;-72
2022/06/30 01:01:44;;;;;;;18.20;12.93;;;;;;;18.18;100.00;96224.94;5036051;28;20041;-72
2022/06/30 01:04:13;;;;;;;17.98;13.35;;;;;;;18.23;100.00;96228.34;5033855;28;20502;-72
2022/06/30 01:06:41;;;;;;;16.70;12.88;;;;;;;18.22;100.00;96223.25;5034989;28;20037;-73
2022/06/30 01:09:07;;;;;;;18.83;12.35;;;;;;;18.13;100.00;96230.44;5035928;28;20041;-72
2022/06/30 01:14:18;;;;;;;16.48;13.20;;;;;;;17.93;100.00;96220.84;5033922;28;20079;-72
2022/06/30 01:16:44;;;;;;;21.73;13.70;;;;;;;17.83;100.00;96227.25;5034134;28;20592;-73
2022/06/30 01:19:09;;;;;;;18.58;13.60;;;;;;;17.83;100.00;96229.16;5033541;28;20261;-72
2022/06/30 01:21:35;;;;;;;19.45;13.50;;;;;;;17.75;100.00;96230.66;5034242;28;20030;-73
2022/06/30 01:24:01;;;;;;;18.88;13.45;;;;;;;17.72;100.00;96231.25;5036391;28;20042;-72
2022/06/30 01:26:29;;;;;;;18.63;13.80;;;;;;;17.76;100.00;96224.94;5032265;28;20033;-72
2022/06/30 01:28:55;;;;;;;18.60;14.38;;;;;;;17.70;100.00;96223.44;5034721;28;20232;-72
2022/06/30 01:31:21;;;;;;;19.17;13.57;;;;;;;17.70;100.00;96233.41;5034474;28;20400;-72
2022/06/30 01:33:46;;;;;;;18.80;14.48;;;;;;;17.65;100.00;96230.78;5034661;28;20040;-71
2022/06/30 01:36:12;;;;;;;20.60;14.52;;;;;;;17.64;100.00;96234.59;5034599;28;20113;-72
2022/06/30 01:38:38;;;;;;;18.20;14.00;;;;;;;17.65;100.00;96236.22;5034073;28;20090;-73
2022/06/30 01:41:03;;;;;;;19.55;13.65;;;;;;;17.50;100.00;96235.38;5032461;28;20043;-73
2022/06/30 01:43:28;;;;;;;18.23;14.60;;;;;;;17.45;100.00;96227.38;5035547;28;20040;-72
2022/06/30 01:45:54;;;;;;;20.10;14.88;;;;;;;17.41;100.00;96231.75;5033846;28;20623;-73
2022/06/30 01:48:20;;;;;;;20.83;15.02;;;;;;;17.42;100.00;96233.34;5033487;28;20091;-72
2022/06/30 01:50:45;;;;;;;21.45;15.15;;;;;;;17.42;100.00;96243.38;5033475;28;20125;-72
2022/06/30 01:53:11;;;;;;;20.27;14.30;;;;;;;17.45;100.00;96240.09;5034034;28;20474;-72
2022/06/30 01:55:36;;;;;;;19.55;15.00;;;;;;;17.35;100.00;96243.75;5033550;28;20033;-72
2022/06/30 01:58:02;;;;;;;18.60;14.18;;;;;;;17.36;100.00;96244.59;5035722;28;20448;-72
2022/06/30 02:00:28;;;;;;;19.65;14.88;;;;;;;17.40;100.00;96234.75;5032142;28;20072;-73
2022/06/30 02:02:55;;;;;;;19.55;15.13;;;;;;;17.34;100.00;96235.94;5034021;28;20412;-72
2022/06/30 02:05:21;;;;;;;27.00;15.95;;;;;;;17.37;100.00;96233.47;5032579;28;20059;-72
2022/06/30 02:07:47;;;;;;;21.27;15.45;;;;;;;17.36;100.00;96239.19;5034089;28;20037;-72
2022/06/30 02:10:19;;;;;;;24.17;16.02;;;;;;;17.34;100.00;96239.44;5035122;28;20035;-72
2022/06/30 02:12:45;;;;;;;22.90;16.13;;;;;;;17.35;100.00;96241.06;5040044;28;20040;-73
2022/06/30 02:15:19;;;;;;;21.50;16.20;;;;;;;17.40;100.00;96237.47;5037508;28;20120;-72
2022/06/30 02:17:46;;;;;;;25.98;16.85;;;;;;;17.46;100.00;96236.28;5051375;28;20858;-73
2022/06/30 02:20:12;;;;;;;22.10;16.73;;;;;;;17.49;100.00;96233.78;5035341;28;20521;-72
2022/06/30 02:22:41;;;;;;;22.27;16.70;;;;;;;17.47;100.00;96241.41;5039302;28;20091;-72
2022/06/30 02:25:08;;;;;;;24.48;16.73;;;;;;;17.54;100.00;96241.81;5037268;28;20507;-73
2022/06/30 02:27:35;;;;;;;26.58;17.77;;;;;;;17.56;100.00;96246.91;5037313;28;20351;-72
2022/06/30 02:30:00;;;;;;;24.42;16.85;;;;;;;17.51;100.00;96249.72;5037167;28;20388;-72
2022/06/30 02:32:26;;;;;;;25.67;18.02;;;;;;;17.38;100.00;96253.19;5037891;28;20060;-72
2022/06/30 02:34:52;;;;;;;27.20;17.77;;;;;;;17.37;100.00;96249.69;5039173;28;20055;-72
2022/06/30 02:37:18;;;;;;;28.13;18.25;;;;;;;17.37;100.00;96240.78;5038054;28;20523;-73
2022/06/30 02:39:44;;;;;;;27.08;18.13;;;;;;;17.35;100.00;96246.47;5035932;28;20328;-72
2022/06/30 02:42:10;;;;;;;24.00;16.95;;;;;;;17.39;100.00;96246.69;5038565;28;20108;-73
2022/06/30 02:44:36;;;;;;;25.25;17.33;;;;;;;17.32;100.00;96235.44;5037807;28;20171;-72
2022/06/30 02:47:03;;;;;;;28.13;17.83;;;;;;;17.23;100.00;96236.13;5036979;28;20045;-72
2022/06/30 02:49:29;;;;;;;24.88;17.92;;;;;;;17.13;100.00;96239.00;5036336;28;20032;-72
2022/06/30 02:51:55;;;;;;;25.98;18.30;;;;;;;17.06;100.00;96237.78;5039779;28;20630;-73
2022/06/30 02:54:20;;;;;;;26.92;17.10;;;;;;;16.99;100.00;96238.16;5037246;28;20040;-72
2022/06/30 02:56:49;;;;;;;29.02;18.30;;;;;;;16.95;100.00;96240.63;5034954;28;20057;-73
2022/06/30 02:59:14;;;;;;;26.63;18.02;;;;;;;17.05;100.00;96241.59;5035728;28;20452;-73
2022/06/30 03:01:40;;;;;;;27.77;19.25;;;;;;;17.02;100.00;96234.84;5038336;28;20033;-73
2022/06/30 03:04:06;;;;;;;32.50;19.30;;;;;;;17.07;100.00;96237.47;5034622;28;20052;-73
2022/06/30 03:06:32;;;;;;;29.55;18.80;;;;;;;17.06;100.00;96235.06;5035688;28;20140;-73
2022/06/30 03:08:59;;;;;;;24.88;18.15;;;;;;;16.90;100.00;96237.22;5036661;28;20032;-73
2022/06/30 03:11:25;;;;;;;25.75;18.60;;;;;;;16.84;100.00;96233.78;5038306;28;20475;-73
2022/06/30 03:13:51;;;;;;;27.58;18.98;;;;;;;16.91;100.00;96236.13;5036224;28;20283;-73
2022/06/30 03:16:19;;;;;;;24.13;18.38;;;;;;;16.91;100.00;96236.91;5036813;28;20071;-72
2022/06/30 03:18:45;;;;;;;28.40;18.50;;;;;;;16.86;100.00;96236.97;5038194;28;20285;-72
2022/06/30 03:21:11;;;;;;;25.17;18.77;;;;;;;16.87;100.00;96233.19;5036019;28;20037;-72
2022/06/30 03:23:37;;;;;;;26.90;17.83;;;;;;;16.97;100.00;96232.25;5036726;28;20032;-73
2022/06/30 03:26:03;;;;;;;28.90;18.55;;;;;;;16.93;100.00;96226.59;5036669;28;20048;-73
2022/06/30 03:28:29;;;;;;;25.08;17.50;;;;;;;16.92;100.00;96230.41;5037046;28;20021;-73
2022/06/30 03:30:54;;;;;;;22.85;16.42;;;;;;;16.95;100.00;96218.19;5034039;28;20703;-72
2022/06/30 03:33:20;;;;;;;25.52;17.58;;;;;;;16.92;100.00;96230.41;5035256;28;20037;-73
2022/06/30 03:35:46;;;;;;;29.73;19.05;;;;;;;16.81;100.00;96233.53;5036640;28;20334;-72
2022/06/30 03:38:12;;;;;;;27.02;17.90;;;;;;;16.78;100.00;96234.94;5037800;28;20056;-72
2022/06/30 03:40:38;;;;;;;26.35;19.10;;;;;;;16.77;100.00;96235.25;5037091;28;20059;-73
2022/06/30 03:43:04;;;;;;;28.67;17.88;;;;;;;16.86;100.00;96239.69;5038861;28;20471;-72
2022/06/30 03:45:29;;;;;;;30.77;17.70;;;;;;;16.76;100.00;96241.75;5037555;28;20568;-72
2022/06/30 03:47:55;;;;;;;26.27;18.05;;;;;;;16.74;100.00;96243.94;5037040;28;20025;-73
2022/06/30 03:50:20;;;;;;;27.08;17.88;;;;;;;16.81;100.00;96242.47;5034369;28;20084;-73
2022/06/30 03:52:46;;;;;;;25.00;17.90;;;;;;;16.93;100.00;96242.03;5037463;28;20033;-74
2022/06/30 03:55:12;;;;;;;30.90;17.52;;;;;;;16.95;100.00;96237.13;5036145;28;20045;-73
2022/06/30 03:57:38;;;;;;;25.20;18.50;;;;;;;17.02;100.00;96236.75;5037750;28;20033;-73
2022/06/30 04:00:05;;;;;;;24.65;17.00;;;;;;;16.92;100.00;96227.72;5036236;28;20041;-73
2022/06/30 04:02:31;;;;;;;28.33;18.77;;;;;;;16.89;100.00;96231.00;5037013;28;20043;-73
2022/06/30 04:04:56;;;;;;;25.60;18.52;;;;;;;16.82;100.00;96227.06;5036948;28;20045;-73
2022/06/30 04:07:22;;;;;;;28.88;19.30;;;;;;;16.81;100.00;96226.28;5037620;28;20068;-73
2022/06/30 04:09:47;;;;;;;26.67;18.95;;;;;;;16.90;100.00;96227.22;5036132;28;20033;-73
2022/06/30 04:12:13;;;;;;;27.38;19.27;;;;;;;16.96;100.00;96220.63;5038057;28;20048;-74
2022/06/30 04:14:38;;;;;;;27.67;18.23;;;;;;;17.06;100.00;96226.97;5051081;28;20032;-72
2022/06/30 04:17:04;;;;;;;27.58;18.00;;;;;;;17.15;100.00;96220.59;5036276;28;20562;-73
2022/06/30 04:19:30;;;;;;;28.50;19.80;;;;;;;17.15;100.00;96217.06;5036774;28;20712;-73
2022/06/30 04:21:56;;;;;;;25.35;17.55;;;;;;;17.24;100.00;96224.22;5037105;28;20041;-73
2022/06/30 04:24:22;;;;;;;24.23;17.50;;;;;;;17.29;100.00;96217.91;5037749;28;20040;-73
2022/06/30 04:26:48;;;;;;;25.92;18.60;;;;;;;17.29;100.00;96220.63;5037671;28;20092;-74
2022/06/30 04:29:14;;;;;;;32.65;18.33;;;;;;;17.27;100.00;96217.41;5034947;28;20490;-73
2022/06/30 04:34:23;;;;;;;28.77;19.30;;;;;;;17.30;100.00;96213.31;5034123;28;20475;-74
2022/06/30 04:36:49;;;;;;;28.10;19.08;;;;;;;17.31;100.00;96223.03;5033815;28;20039;-73
2022/06/30 04:39:15;;;;;;;35.35;20.13;;;;;;;17.38;100.00;96213.44;5035717;28;20017;-73
2022/06/30 04:41:41;;;;;;;29.10;18.30;;;;;;;17.44;100.00;96211.44;5048657;28;20043;-72
2022/06/30 04:44:06;;;;;;;27.33;19.38;;;;;;;17.48;100.00;96209.75;5034048;28;20048;-72
2022/06/30 04:46:32;;;;;;;28.85;19.77;;;;;;;17.55;100.00;96210.94;5036283;28;20041;-72
2022/06/30 04:48:58;;;;;;;26.67;18.88;;;;;;;17.64;100.00;96202.94;5033109;28;20032;-73
2022/06/30 04:51:24;;;;;;;27.58;18.45;;;;;;;17.73;100.00;96203.88;5034150;28;20041;-72
2022/06/30 04:53:50;;;;;;;28.27;19.30;;;;;;;17.83;100.00;96199.41;5035192;28;20052;-72
2022/06/30 04:56:17;;;;;;;26.75;18.70;;;;;;;17.91;100.00;96204.91;5037103;28;20025;-72
2022/06/30 04:58:43;;;;;;;29.05;18.00;;;;;;;17.97;100.00;96195.56;5036471;28;20029;-72
2022/06/30 05:01:10;;;;;;;28.73;18.42;;;;;;;18.02;100.00;96203.59;5035097;28;20107;-73
2022/06/30 05:03:43;;;;;;;27.58;18.83;;;;;;;18.10;100.00;96204.78;5037216;28;20048;-73
2022/06/30 05:06:11;;;;;;;25.38;18.05;;;;;;;18.20;100.00;96198.34;5032531;28;20032;-72
2022/06/30 05:08:39;;;;;;;31.83;18.83;;;;;;;18.27;100.00;96204.16;5029345;28;20017;-72
2022/06/30 05:11:05;;;;;;;25.13;18.23;;;;;;;18.36;100.00;96195.03;5036283;28;20527;-73
2022/06/30 05:13:31;;;;;;;26.70;18.75;;;;;;;18.48;100.00;96199.91;5032739;28;20052;-72
2022/06/30 05:15:59;;;;;;;22.98;17.77;;;;;;;18.59;100.00;96189.63;5030908;28;20030;-72
2022/06/30 05:18:26;;;;;;;28.23;17.67;;;;;;;18.64;100.00;96187.63;5032014;28;20851;-72
2022/06/30 05:20:52;;;;;;;25.50;17.25;;;;;;;18.69;100.00;96188.66;5034265;28;20504;-73
2022/06/30 05:23:17;;;;;;;23.88;17.10;;;;;;;18.77;100.00;96190.63;5037482;28;20099;-72
2022/06/30 05:28:27;;;;;;;26.05;17.10;;;;;;;18.90;100.00;96190.53;5031721;28;20107;-72
2022/06/30 05:30:52;;;;;;;24.13;16.38;;;;;;;19.00;100.00;96189.53;5034392;28;20120;-73
2022/06/30 05:33:19;;;;;;;26.20;16.48;;;;;;;19.05;100.00;96185.88;5032876;28;20056;-72
2022/06/30 05:35:47;;;;;;;25.95;16.75;;;;;;;19.10;100.00;96181.13;5032997;28;20484;-73
2022/06/30 05:38:13;;;;;;;22.45;16.38;;;;;;;19.16;100.00;96184.53;5031991;28;20567;-72
2022/06/30 05:40:39;;;;;;;23.52;15.98;;;;;;;19.20;100.00;96172.72;5052148;28;20025;-72
2022/06/30 05:43:05;;;;;;;20.63;15.45;;;;;;;19.31;100.00;96180.63;5035029;28;20036;-72
2022/06/30 05:45:30;;;;;;;25.13;16.42;;;;;;;19.37;100.00;96174.72;5033890;28;20099;-72
2022/06/30 05:47:55;;;;;;;26.60;16.92;;;;;;;19.40;100.00;96182.25;5032136;28;20045;-72
2022/06/30 05:50:22;;;;;;;22.92;15.80;;;;;;;19.49;100.00;96179.59;5032062;28;20514;-74
2022/06/30 05:52:50;;;;;;;21.50;15.15;;;;;;;19.53;100.00;96182.47;5052798;28;20033;-72
2022/06/30 05:55:16;;;;;;;20.33;14.68;;;;;;;19.53;100.00;96179.75;5038441;28;20079;-72
2022/06/30 05:57:49;;;;;;;22.90;16.55;;;;;;;19.63;100.00;96180.34;5039548;28;20033;-74
2022/06/30 06:00:15;;;;;;;23.33;15.73;;;;;;;19.71;100.00;96178.75;5036225;28;20142;-72
2022/06/30 06:02:40;;;;;;;24.60;15.55;;;;;;;19.78;100.00;96175.59;5038904;28;20116;-72
2022/06/30 06:05:06;;;;;;;24.90;15.65;;;;;;;19.81;100.00;96175.75;5038784;28;20055;-72
2022/06/30 06:07:31;;;;;;;23.63;15.30;;;;;;;19.86;100.00;96172.13;5038789;28;20072;-73
2022/06/30 06:09:57;;;;;;;24.90;15.45;;;;;;;19.94;100.00;96165.91;5037106;28;20110;-73
2022/06/30 06:12:22;;;;;;;22.45;14.75;;;;;;;19.93;100.00;96162.41;5039878;28;21662;-72
2022/06/30 06:14:48;;;;;;;26.13;17.70;;;;;;;19.99;100.00;96160.31;5039670;28;20036;-72
2022/06/30 06:17:13;;;;;;;23.92;16.35;;;;;;;20.04;100.00;96173.75;5039485;28;20045;-73
2022/06/30 06:19:39;;;;;;;24.65;16.90;;;;;;;20.13;100.00;96184.63;5040037;28;20041;-72
2022/06/30 06:22:04;;;;;;;24.90;15.73;;;;;;;20.21;100.00;96179.22;5040124;28;20033;-72
2022/06/30 06:24:30;;;;;;;25.35;16.23;;;;;;;20.30;100.00;96184.66;5040204;28;20039;-72
2022/06/30 06:26:55;;;;;;;24.70;14.98;;;;;;;20.39;100.00;96185.50;5038686;28;20235;-72
2022/06/30 06:29:21;;;;;;;23.23;13.98;;;;;;;20.47;100.00;96186.66;5038527;28;20033;-72
2022/06/30 06:31:47;;;;;;;19.38;15.13;;;;;;;20.54;100.00;96181.53;5043211;28;20099;-73
2022/06/30 06:34:12;;;;;;;19.42;14.05;;;;;;;20.52;100.00;96187.28;5043201;28;20061;-71
2022/06/30 06:36:38;;;;;;;22.65;15.90;;;;;;;20.64;100.00;96180.44;5046001;28;20029;-73
2022/06/30 06:39:04;;;;;;;24.85;14.65;;;;;;;20.64;100.00;96175.81;5040553;28;20114;-73
2022/06/30 06:41:30;;;;;;;23.95;14.07;;;;;;;20.70;100.00;96181.84;5039502;28;20032;-73
2022/06/30 06:43:55;;;;;;;25.90;13.13;;;;;;;20.67;100.00;96175.16;5039234;28;20102;-72
2022/06/30 06:46:26;;;;;;;21.08;13.30;;;;;;;20.73;100.00;96179.31;5037963;28;20067;-72
2022/06/30 06:48:52;;;;;;;;;;;;;;;20.84;100.00;96183.28;5039898;28;20025;-72
2022/06/30 06:51:17;;;;;;;21.27;13.80;;;;;;;20.90;100.00;96183.16;5040202;28;20390;-72
2022/06/30 06:53:43;;;;;;;20.17;12.63;;;;;;;20.94;100.00;96174.03;5040069;28;20044;-73
2022/06/30 06:56:08;;;;;;;22.45;14.57;;;;;;;21.07;100.00;96173.03;5040244;28;20495;-73
2022/06/30 06:58:34;;;;;;;23.20;15.13;;;;;;;21.19;100.00;96171.59;5039521;28;20494;-72
2022/06/30 07:01:00;;;;;;;22.88;14.52;;;;;;;21.24;100.00;96165.97;5038995;28;20230;-73
2022/06/30 07:03:25;;;;;;;21.40;13.55;;;;;;;21.25;100.00;96176.56;5037557;28;20060;-72
2022/06/30 07:05:51;;;;;;;20.95;13.98;;;;;;;21.37;100.00;96170.44;5053346;28;20567;-72
2022/06/30 07:08:17;;;;;;;21.65;13.25;;;;;;;21.47;100.00;96175.53;5035986;28;20040;-73
2022/06/30 07:10:42;;;;;;;19.48;13.55;;;;;;;21.53;100.00;96171.53;5038567;28;20033;-72
2022/06/30 07:13:07;;;;;;;18.55;12.95;;;;;;;21.61;100.00;96173.41;5017515;28;20186;-73
2022/06/30 07:15:33;;;;;;;21.17;13.30;;;;;;;21.59;100.00;96172.16;5021198;28;20434;-73
2022/06/30 07:18:03;;;;;;;16.77;11.85;;;;;;;21.68;100.00;96173.72;5035881;28;20462;-72
2022/06/30 07:20:28;;;;;;;22.02;12.55;;;;;;;21.74;100.00;96179.00;5037496;28;20060;-73
2022/06/30 07:22:54;;;;;;;22.90;13.68;;;;;;;21.84;100.00;96178.63;5036809;28;20065;-72
2022/06/30 07:25:19;;;;;;;18.23;12.32;;;;;;;21.83;100.00;96174.31;5035939;28;20451;-74
2022/06/30 07:27:45;;;;;;;21.38;14.15;;;;;;;21.98;100.00;96176.47;5036712;28;20407;-72
2022/06/30 07:30:11;;;;;;;22.05;12.98;;;;;;;21.99;100.00;96183.50;5035678;28;20629;-73
2022/06/30 07:32:37;;;;;;;20.08;13.70;;;;;;;22.03;100.00;96178.22;5036429;28;20045;-73
2022/06/30 07:35:04;;;;;;;19.98;12.90;;;;;;;22.16;100.00;96179.94;5035555;28;20568;-72
2022/06/30 07:37:30;;;;;;;17.10;12.93;;;;;;;22.23;100.00;96182.94;5037230;28;20068;-72
2022/06/30 07:39:56;;;;;;;17.83;12.05;;;;;;;22.30;100.00;96174.25;5034596;28;20067;-73
2022/06/30 07:42:21;;;;;;;21.13;11.93;;;;;;;22.26;100.00;96179.56;5036187;28;20039;-73
2022/06/30 07:44:47;;;;;;;17.15;11.60;;;;;;;22.34;100.00;96181.44;5034138;28;20030;-73
2022/06/30 07:47:12;;;;;;;17.73;11.98;;;;;;;22.50;100.00;96182.44;5037122;28;20036;-72
2022/06/30 07:49:38;;;;;;;18.77;11.75;;;;;;;22.55;100.00;96175.97;5034868;28;20368;-72
2022/06/30 07:52:04;;;;;;;20.45;10.82;;;;;;;22.62;100.00;96175.47;5038183;28;20083;-73
2022/06/30 07:54:30;;;;;;;15.20;10.82;;;;;;;22.64;100.00;96179.44;5036255;28;20082;-72
2022/06/30 07:56:56;;;;;;;16.70;11.00;;;;;;;22.70;100.00;96171.88;5049591;28;20033;-73
2022/06/30 07:59:22;;;;;;;18.80;11.13;;;;;;;22.76;100.00;96170.53;5048799;28;20030;-72
2022/06/30 08:01:47;;;;;;;16.88;11.80;;;;;;;22.80;100.00;96169.56;5034687;28;20047;-72
2022/06/30 08:04:12;;;;;;;15.98;10.68;;;;;;;22.86;100.00;96167.44;5035072;28;20057;-72
2022/06/30 08:06:38;;;;;;;13.30;9.98;;;;;;;22.93;100.00;96173.16;5036213;28;20443;-72
2022/06/30 08:09:03;;;;;;;16.08;10.57;;;;;;;22.97;100.00;96171.34;5054403;28;20025;-73
2022/06/30 08:11:29;;;;;;;16.95;10.60;;;;;;;23.03;100.00;96163.75;5034769;28;20135;-72
2022/06/30 08:13:55;;;;;;;13.90;8.80;;;;;;;22.97;100.00;96176.81;5038478;28;20202;-72
2022/06/30 08:16:20;;;;;;;18.52;10.27;;;;;;;23.03;100.00;96174.66;5033560;28;20064;-72
2022/06/30 08:18:46;;;;;;;17.02;9.88;;;;;;;23.17;100.00;96180.63;5052520;28;20033;-73
2022/06/30 08:21:11;;;;;;;14.02;9.27;;;;;;;23.18;100.00;96178.69;5033402;28;20029;-72
2022/06/30 08:23:39;;;;;;;14.27;8.40;;;;;;;23.15;100.00;96173.91;5035444;28;20069;-72
2022/06/30 08:26:05;;;;;;;17.13;9.13;;;;;;;23.27;100.00;96168.50;5032862;28;20039;-72
2022/06/30 08:28:32;;;;;;;13.40;8.15;;;;;;;23.31;100.00;96174.88;5035585;28;20021;-74
2022/06/30 08:31:00;;;;;;;11.35;7.72;;;;;;;23.41;100.00;96179.91;5034601;28;20079;-71
2022/06/30 08:33:25;;;;;;;13.05;7.85;;;;;;;23.40;100.00;96167.38;5053329;28;20033;-72
2022/06/30 08:35:51;;;;;;;12.60;6.68;;;;;;;23.55;100.00;96172.19;5034749;28;20500;-72
2022/06/30 08:38:17;;;;;;;11.38;7.13;;;;;;;23.72;100.00;96175.91;5035681;28;20383;-73
2022/06/30 08:43:27;;;;;;;13.15;6.35;;;;;;;23.73;100.00;96163.81;5035819;28;20067;-74
2022/06/30 08:45:54;;;;;;;14.18;8.05;;;;;;;23.66;100.00;96164.41;5034807;28;20415;-73
2022/06/30 08:48:20;;;;;;;15.02;6.22;;;;;;;23.62;100.00;96172.47;5034172;28;20040;-73
2022/06/30 08:50:47;;;;;;;8.38;5.70;;;;;;;23.77;100.00;96159.28;5050827;28;20037;-72
2022/06/30 08:53:15;;;;;;;11.25;6.13;;;;;;;24.06;100.00;96161.81;5050079;28;20040;-73
2022/06/30 08:55:42;;;;;;;7.65;4.60;;;;;;;24.23;100.00;96165.44;5032704;28;20555;-73
2022/06/30 08:58:08;;;;;;;7.43;4.93;;;;;;;24.20;100.00;96161.44;5030706;28;20474;-72
2022/06/30 09:00:36;;;;;;;6.47;4.40;;;;;;;24.40;100.00;96162.47;5033383;28;20111;-73
2022/06/30 09:03:05;;;;;;;9.75;4.80;;;;;;;24.54;100.00;96153.91;5033202;28;20048;-73
2022/06/30 09:05:31;;;;;;;8.88;5.40;;;;;;;24.71;100.00;96162.63;5033210;28;20370;-73
2022/06/30 09:07:57;;;;;;;11.02;6.00;;;;;;;24.65;100.00;96153.06;5049745;28;20037;-73
2022/06/30 09:10:24;;;;;;;8.95;5.45;;;;;;;24.84;100.00;96157.13;5032663;28;20029;-74
2022/06/30 09:13:01;;;;;;;15.18;6.38;;;;;;;24.97;100.00;96148.50;5034584;28;20044;-73
2022/06/30 09:15:31;;;;;;;12.48;6.60;;;;;;;25.08;100.00;96140.66;5036893;28;20025;-73
2022/06/30 09:17:58;;;;;;;10.13;6.67;;;;;;;25.31;100.00;96151.81;5033508;28;20068;-73
2022/06/30 09:20:38;;;;;;;9.82;5.13;;;;;;;25.12;99.46;96143.47;5040564;28;20048;-73
2022/06/30 09:23:22;;;;;;;8.43;4.45;;;;;;;25.10;94.28;96149.31;5039415;28;20081;-73
2022/06/30 09:25:49;;;;;;;6.28;3.80;;;;;;;25.32;90.77;96153.41;5058425;28;20098;-73
2022/06/30 09:28:16;;;;;;;6.13;4.38;;;;;;;25.49;94.78;96144.06;5010886;28;20025;-73
2022/06/30 09:30:41;;;;;;;14.98;4.93;;;;;;;25.71;95.63;96146.22;5021841;28;20079;-73
2022/06/30 09:33:09;;;;;;;9.32;4.70;;;;;;;25.66;94.51;96143.72;5039846;28;20033;-73
2022/06/30 09:35:37;;;;;;;13.05;5.53;;;;;;;25.41;94.38;96136.81;5023645;28;20494;-73
2022/06/30 09:38:09;;;;;;;12.43;6.10;;;;;;;25.09;98.76;96136.75;5040796;28;20139;-73
2022/06/30 09:41:00;;;;;;;10.30;5.68;;;;;;;25.08;93.44;96150.81;5031530;28;20598;-73
2022/06/30 09:43:31;;;;;;;8.05;5.35;;;;;;;25.14;96.70;96142.00;5021044;28;20051;-73
2022/06/30 09:45:57;;;;;;;13.60;5.95;;;;;;;24.69;100.00;96143.03;5018676;28;20037;-73
2022/06/30 09:48:26;;;;;;;9.48;5.60;;;;;;;24.52;100.00;96134.34;5024830;28;20209;-73
2022/06/30 09:51:01;;;;;;;8.65;5.00;;;;;;;24.73;100.00;96135.72;5050790;28;20049;-73
2022/06/30 09:53:26;;;;;;;8.10;3.90;;;;;;;24.53;85.83;96138.66;5019737;28;20405;-73
2022/06/30 09:55:52;;;;;;;7.07;4.50;;;;;;;24.62;96.21;96129.16;5020913;28;20256;-73
2022/06/30 09:58:30;;;;;;;11.88;4.93;;;;;;;24.94;94.84;96134.75;5022812;28;20150;-73
2022/06/30 10:00:56;;;;;;;10.75;4.65;;;;;;;25.18;91.68;96134.66;5017525;28;20033;-73
2022/06/30 10:03:22;;;;;;;8.52;4.32;;;;;;;25.38;94.45;96141.06;5023704;28;20045;-73
2022/06/30 10:05:51;;;;;;;8.10;4.97;;;;;;;25.54;90.60;96130.13;5007365;28;20036;-73
2022/06/30 10:08:18;;;;;;;6.40;4.43;;;;;;;25.52;86.89;96130.44;5048748;28;20450;-73
2022/06/30 10:10:44;;;;;;;13.50;5.18;;;;;;;25.86;90.26;96130.16;5000552;28;20068;-73
2022/06/30 10:13:16;;;;;;;10.52;4.60;;;;;;;26.16;88.58;96141.44;5023563;28;20379;-73
2022/06/30 10:15:47;;;;;;;8.10;4.20;;;;;;;26.25;90.19;96137.34;5018599;28;20037;-73
2022/06/30 10:18:13;;;;;;;9.93;4.85;;;;;;;26.24;89.67;96126.75;4685995;28;9999865;-73
2022/06/30 10:20:40;;;;;;;11.02;3.83;;;;;;;26.22;82.57;96124.31;4687709;28;10000284;-73
2022/06/30 10:23:08;;;;;;;5.68;3.47;;;;;;;26.41;84.46;96131.06;5014198;28;20037;-73
2022/06/30 10:25:35;;;;;;;6.88;3.72;;;;;;;26.49;77.97;96124.56;5020446;28;20021;-73
2022/06/30 10:28:02;;;;;;;7.65;3.50;;;;;;;26.72;78.91;96119.97;5017623;28;20028;-73
2022/06/30 10:30:40;;;;;;;8.57;3.67;;;;;;;26.74;73.33;96117.66;5033263;28;20043;-73
2022/06/30 10:33:24;;;;;;;5.43;3.28;;;;;;;26.83;73.45;96118.22;5029190;28;20045;-73
2022/06/30 10:36:10;;;;;;;4.78;3.47;;;;;;;26.92;71.12;96107.81;5021829;28;20056;-73
2022/06/30 10:38:43;;;;;;;8.75;3.35;;;;;;;27.13;76.19;96103.94;5014498;28;20140;-73
2022/06/30 10:41:10;;;;;;;5.50;3.83;;;;;;;27.43;75.31;96113.13;5026236;28;20028;-73
2022/06/30 10:44:05;;;;;;;5.88;3.70;;;;;;;27.47;78.14;96114.00;5056167;28;20060;-74
2022/06/30 10:46:34;;;;;;;7.03;3.90;;;;;;;27.48;74.51;96120.28;5004737;28;20404;-73
2022/06/30 10:49:07;;;;;;;6.22;3.95;;;;;;;27.37;72.16;96106.34;5038619;28;20029;-73
2022/06/30 10:51:34;;;;;;;7.68;4.03;;;;;;;27.66;68.57;96112.31;5022028;28;20037;-73
2022/06/30 10:54:00;;;;;;;5.68;3.40;;;;;;;27.48;76.43;96104.59;5024497;28;20096;-73
2022/06/30 10:56:48;;;;;;;8.32;3.85;;;;;;;27.28;80.29;96110.47;5024203;28;20037;-73
2022/06/30 10:59:16;;;;;;;7.75;3.70;;;;;;;26.92;70.69;96110.56;5042222;28;20060;-74
2022/06/30 11:02:11;;;;;;;8.82;3.80;;;;;;;27.37;71.85;96106.34;5041694;28;20033;-74
2022/06/30 11:04:51;;;;;;;6.47;3.50;;;;;;;28.43;66.27;96103.75;5018247;28;20041;-74
2022/06/30 11:07:24;;;;;;;7.90;3.50;;;;;;;29.58;58.84;96100.38;5042785;28;20048;-74
2022/06/30 11:09:51;;;;;;;6.45;3.58;;;;;;;30.28;53.28;96104.09;5032934;28;20069;-73
2022/06/30 11:12:38;;;;;;;6.57;3.88;;;;;;;30.10;54.34;96099.22;5040121;28;20045;-74
2022/06/30 11:15:04;;;;;;;6.78;3.38;;;;;;;29.83;51.44;96106.88;4992278;28;20045;-74
2022/06/30 11:17:32;;;;;;;7.15;3.47;;;;;;;29.05;52.81;96093.13;5017633;28;20565;-74
2022/06/30 11:20:11;;;;;;;7.40;3.50;;;;;;;29.14;54.45;96099.13;5034539;28;20047;-73
2022/06/30 11:22:38;;;;;;;9.10;3.20;;;;;;;29.08;52.92;96095.13;5023258;28;20607;-74
2022/06/30 11:27:17;;;;;;;7.15;3.28;;;;;;;29.04;44.29;96101.78;5037411;28;21058;-74